createdAt,value
2018-04-17T00:01:31.206Z,25.53
2018-04-17T00:03:57.892Z,24.07
2018-04-17T00:06:25.136Z,27.20
2018-04-17T00:08:51.869Z,24.97
2018-04-17T00:11:18.613Z,29.63
2018-04-17T00:13:47.298Z,27.63
2018-04-17T00:16:14.135Z,26.77
2018-04-17T00:18:40.877Z,33.80
2018-04-17T00:21:07.825Z,31.23
2018-04-17T00:23:34.560Z,28.57
2018-04-17T00:26:01.407Z,29.23
2018-04-17T00:28:28.256Z,21.43
2018-04-17T00:30:55.091Z,26.93
2018-04-17T00:33:21.736Z,25.23
2018-04-17T00:35:48.571Z,26.87
2018-04-17T00:38:15.412Z,32.23
2018-04-17T00:40:42.153Z,30.10
2018-04-17T00:43:08.994Z,28.57
2018-04-17T00:45:35.806Z,31.60
2018-04-17T00:48:03.295Z,27.83
2018-04-17T00:50:30.134Z,26.10
2018-04-17T00:52:56.877Z,26.47
2018-04-17T00:55:23.720Z,23.23
2018-04-17T00:57:50.455Z,23.77
2018-04-17T01:00:17.289Z,22.43
2018-04-17T01:02:44.038Z,24.63
2018-04-17T01:05:10.979Z,25.47
2018-04-17T01:07:37.723Z,25.23
2018-04-17T01:10:04.567Z,27.30
2018-04-17T01:12:31.294Z,30.67
2018-04-17T01:14:58.562Z,30.30
2018-04-17T01:17:25.404Z,28.03
2018-04-17T01:19:52.139Z,25.73
2018-04-17T01:22:18.981Z,28.67
2018-04-17T01:24:45.725Z,30.43
2018-04-17T01:27:12.555Z,28.60
2018-04-17T01:29:39.410Z,28.00
2018-04-17T01:32:06.261Z,28.30
2018-04-17T01:34:33.093Z,31.47
2018-04-17T01:36:59.943Z,27.42
2018-04-17T01:39:26.781Z,24.40
2018-04-17T01:41:53.618Z,21.67
2018-04-17T01:44:20.566Z,28.90
2018-04-17T01:46:47.409Z,26.53
2018-04-17T01:49:14.145Z,32.37
2018-04-17T01:51:41.704Z,27.60
2018-04-17T01:54:08.371Z,32.33
2018-04-17T01:56:35.804Z,22.15
2018-04-17T01:59:02.488Z,22.75
2018-04-17T02:01:29.392Z,23.15
2018-04-17T02:03:56.229Z,21.12
2018-04-17T02:06:22.905Z,20.42
2018-04-17T02:08:49.782Z,25.75
2018-04-17T02:11:16.551Z,27.02
2018-04-17T02:13:43.395Z,25.02
2018-04-17T02:16:10.543Z,25.15
2018-04-17T02:18:37.385Z,31.50
2018-04-17T02:21:04.228Z,24.58
2018-04-17T02:23:31.174Z,25.00
2018-04-17T02:25:58.015Z,23.92
2018-04-17T02:28:25.165Z,21.50
2018-04-17T02:30:51.847Z,24.52
2018-04-17T02:33:19.250Z,25.52
2018-04-17T02:35:46.102Z,23.27
2018-04-17T02:38:12.945Z,20.65
2018-04-17T02:40:39.781Z,24.95
2018-04-17T02:43:06.480Z,25.88
2018-04-17T02:45:33.443Z,25.65
2018-04-17T02:48:00.146Z,29.95
2018-04-17T02:50:27.770Z,27.17
2018-04-17T02:52:54.818Z,19.85
2018-04-17T02:55:21.654Z,21.55
2018-04-17T02:57:48.318Z,20.23
2018-04-17T03:00:15.135Z,20.48
2018-04-17T03:02:42.082Z,21.67
2018-04-17T03:05:08.925Z,21.05
2018-04-17T03:07:35.767Z,21.80
2018-04-17T03:10:02.814Z,33.53
2018-04-17T03:12:29.652Z,24.80
2018-04-17T03:14:56.604Z,25.50
2018-04-17T03:17:23.648Z,55.10
2018-04-17T03:19:51.312Z,46.88
2018-04-17T03:22:18.146Z,33.05
2018-04-17T03:24:44.993Z,45.45
2018-04-17T03:27:11.678Z,115.95
2018-04-17T03:29:39.290Z,79.35
2018-04-17T03:32:06.238Z,80.62
2018-04-17T03:34:32.959Z,41.35
2018-04-17T03:36:59.630Z,32.58
2018-04-17T03:39:26.350Z,84.65
2018-04-17T03:41:53.044Z,45.83
2018-04-17T03:44:20.652Z,33.88
2018-04-17T03:46:47.400Z,27.15
2018-04-17T03:49:14.337Z,65.53
2018-04-17T03:51:40.991Z,24.55
2018-04-17T03:54:07.812Z,31.45
2018-04-17T03:56:34.632Z,31.08
2018-04-17T03:59:01.395Z,36.75
2018-04-17T04:01:28.343Z,104.07
2018-04-17T04:03:55.188Z,26.83
2018-04-17T04:06:21.922Z,32.38
2018-04-17T04:08:48.668Z,26.23
2018-04-17T04:11:15.611Z,64.12
2018-04-17T04:13:42.453Z,38.08
2018-04-17T04:16:21.583Z,69.62
2018-04-17T04:19:00.427Z,25.40
2018-04-17T04:24:44.440Z,59.15
2018-04-17T04:27:11.241Z,42.92
2018-04-17T04:29:38.770Z,22.92
2018-04-17T04:32:05.612Z,26.70
2018-04-17T04:34:32.864Z,47.22
2018-04-17T04:36:59.707Z,57.15
2018-04-17T04:39:26.554Z,31.12
2018-04-17T04:41:53.387Z,74.72
2018-04-17T04:44:20.233Z,38.55
2018-04-17T04:46:46.974Z,28.67
2018-04-17T04:49:13.816Z,30.35
2018-04-17T04:51:40.659Z,36.83
2018-04-17T04:54:07.314Z,60.67
2018-04-17T04:56:33.985Z,52.97
2018-04-17T04:59:00.882Z,82.45
2018-04-17T05:01:27.554Z,26.30
2018-04-17T05:03:54.763Z,89.43
2018-04-17T05:06:21.479Z,51.67
2018-04-17T05:08:48.242Z,72.18
2018-04-17T05:11:15.083Z,36.80
2018-04-17T05:13:41.846Z,40.22
2018-04-17T05:16:08.676Z,45.53
2018-04-17T05:18:35.514Z,49.88
2018-04-17T05:21:02.461Z,51.50
2018-04-17T05:23:29.199Z,48.60
2018-04-17T05:25:56.042Z,53.78
2018-04-17T05:28:22.778Z,69.32
2018-04-17T05:30:49.627Z,51.77
2018-04-17T05:33:16.305Z,67.10
2018-04-17T05:35:43.205Z,38.60
2018-04-17T05:38:10.049Z,42.23
2018-04-17T05:40:36.891Z,42.23
2018-04-17T05:43:03.734Z,31.50
2018-04-17T05:45:30.410Z,34.60
2018-04-17T05:47:57.213Z,31.67
2018-04-17T05:50:24.154Z,33.27
2018-04-17T05:52:50.969Z,31.70
2018-04-17T05:55:18.450Z,29.07
2018-04-17T05:57:45.300Z,28.00
2018-04-17T06:00:11.994Z,25.37
2018-04-17T06:02:38.779Z,23.40
2018-04-17T06:05:05.720Z,29.40
2018-04-17T06:07:32.459Z,27.30
2018-04-17T06:09:59.144Z,31.03
2018-04-17T06:12:25.842Z,30.53
2018-04-17T06:14:52.917Z,29.07
2018-04-17T06:17:19.730Z,29.97
2018-04-17T06:19:46.675Z,34.37
2018-04-17T06:22:13.357Z,31.93
2018-04-17T06:24:40.257Z,28.00
2018-04-17T06:27:07.095Z,31.60
2018-04-17T06:29:34.044Z,26.37
2018-04-17T06:32:00.783Z,26.50
2018-04-17T06:34:27.934Z,31.63
2018-04-17T06:36:54.591Z,30.33
2018-04-17T06:39:21.414Z,32.73
2018-04-17T06:41:48.378Z,28.80
2018-04-17T06:44:15.301Z,32.10
2018-04-17T06:46:42.140Z,34.17
2018-04-17T06:49:08.887Z,29.50
2018-04-17T06:51:35.829Z,35.03
2018-04-17T06:54:02.774Z,31.50
2018-04-17T06:56:29.719Z,32.60
2018-04-17T06:58:56.450Z,29.33
2018-04-17T07:01:23.196Z,29.63
2018-04-17T07:03:49.939Z,28.67
2018-04-17T07:06:16.985Z,28.90
2018-04-17T07:08:43.638Z,30.20
2018-04-17T07:11:10.363Z,28.37
2018-04-17T07:13:37.183Z,31.83
2018-04-17T07:16:04.048Z,31.63
2018-04-17T07:18:30.891Z,31.40
2018-04-17T07:20:57.733Z,29.50
2018-04-17T07:23:24.574Z,32.47
2018-04-17T07:25:51.409Z,36.63
2018-04-17T07:28:18.159Z,36.13
2018-04-17T07:30:44.893Z,33.03
2018-04-17T07:33:11.839Z,31.50
2018-04-17T07:35:38.677Z,32.03
2018-04-17T07:38:05.523Z,30.13
2018-04-17T07:40:32.525Z,28.77
2018-04-17T07:43:00.129Z,31.07
2018-04-17T07:45:26.974Z,28.20
2018-04-17T07:48:06.516Z,25.37
2018-04-17T07:50:33.209Z,31.33
2018-04-17T07:53:00.711Z,26.90
2018-04-17T07:55:27.557Z,32.70
2018-04-17T07:57:54.289Z,32.97
2018-04-17T08:00:21.545Z,29.83
2018-04-17T08:02:48.284Z,27.97
2018-04-17T08:05:14.917Z,25.43
2018-04-17T08:07:41.866Z,28.50
2018-04-17T08:10:08.607Z,28.50
2018-04-17T08:12:35.452Z,28.90
2018-04-17T08:15:02.292Z,26.20
2018-04-17T08:17:28.970Z,27.07
2018-04-17T08:19:55.614Z,25.20
2018-04-17T08:22:22.610Z,24.33
2018-04-17T08:24:49.353Z,22.60
2018-04-17T08:27:16.094Z,23.03
2018-04-17T08:29:42.762Z,23.63
2018-04-17T08:32:09.569Z,24.53
2018-04-17T08:34:36.421Z,22.83
2018-04-17T08:37:03.177Z,23.67
2018-04-17T08:39:31.124Z,21.83
2018-04-17T08:41:58.070Z,27.80
2018-04-17T08:44:25.244Z,23.37
2018-04-17T08:46:51.913Z,23.97
2018-04-17T08:49:19.317Z,20.17
2018-04-17T08:51:46.114Z,23.40
2018-04-17T08:54:13.610Z,22.97
2018-04-17T08:56:40.455Z,26.77
2018-04-17T08:59:07.399Z,22.03
2018-04-17T09:01:34.017Z,20.93
2018-04-17T09:04:00.772Z,24.17
2018-04-17T09:06:27.513Z,20.23
2018-04-17T09:08:54.460Z,24.73
2018-04-17T09:11:21.405Z,23.23
2018-04-17T09:13:48.359Z,22.93
2018-04-17T09:16:15.089Z,23.17
2018-04-17T09:18:41.932Z,20.87
2018-04-17T09:21:09.209Z,24.73
2018-04-17T09:23:35.988Z,22.53
2018-04-17T09:26:03.585Z,21.47
2018-04-17T09:28:30.326Z,21.27
2018-04-17T09:30:57.271Z,21.97
2018-04-17T09:33:24.113Z,21.33
2018-04-17T09:35:50.853Z,19.50
2018-04-17T09:38:17.590Z,19.37
2018-04-17T09:40:44.538Z,17.87
2018-04-17T09:43:11.380Z,17.27
2018-04-17T09:45:38.222Z,14.63
2018-04-17T09:48:04.905Z,18.37
2018-04-17T09:50:31.756Z,16.57
2018-04-17T09:52:59.261Z,15.17
2018-04-17T09:55:25.997Z,11.10
2018-04-17T09:57:52.945Z,13.37
2018-04-17T10:00:19.784Z,17.07
2018-04-17T10:02:46.630Z,15.07
2018-04-17T10:05:13.473Z,16.33
2018-04-17T10:07:40.239Z,15.73
2018-04-17T10:10:06.918Z,18.27
2018-04-17T10:12:34.409Z,17.63
2018-04-17T10:15:01.248Z,16.07
2018-04-17T10:17:28.158Z,10.87
2018-04-17T10:19:55.039Z,10.87
2018-04-17T10:22:22.392Z,16.17
2018-04-17T10:24:49.337Z,11.70
2018-04-17T10:27:15.981Z,11.33
2018-04-17T10:29:42.817Z,10.73
2018-04-17T10:32:09.579Z,8.73
2018-04-17T10:34:36.981Z,11.67
2018-04-17T10:37:04.573Z,8.83
2018-04-17T10:39:31.309Z,11.73
2018-04-17T10:41:58.261Z,10.23
2018-04-17T10:44:25.102Z,14.40
2018-04-17T10:46:51.756Z,14.17
2018-04-17T10:49:18.585Z,12.10
2018-04-17T10:51:45.422Z,13.93
2018-04-17T10:54:12.265Z,13.53
2018-04-17T10:56:39.121Z,11.87
2018-04-17T10:59:06.662Z,14.77
2018-04-17T11:01:33.402Z,12.53
2018-04-17T11:04:00.270Z,11.07
2018-04-17T11:06:27.087Z,12.80
2018-04-17T11:08:53.738Z,12.07
2018-04-17T11:11:20.676Z,13.77
2018-04-17T11:13:47.511Z,13.93
2018-04-17T11:16:14.707Z,11.77
2018-04-17T11:18:41.916Z,13.23
2018-04-17T11:21:08.865Z,13.63
2018-04-17T11:23:36.007Z,14.80
2018-04-17T11:26:02.810Z,15.63
2018-04-17T11:28:30.411Z,16.83
2018-04-17T11:30:57.356Z,14.90
2018-04-17T11:33:24.142Z,14.90
2018-04-17T11:35:51.143Z,16.53
2018-04-17T11:38:17.946Z,12.20
2018-04-17T11:40:45.848Z,13.57
2018-04-17T11:43:12.796Z,14.20
2018-04-17T11:45:39.537Z,17.87
2018-04-17T11:48:06.481Z,13.23
2018-04-17T11:50:33.238Z,13.97
2018-04-17T11:53:00.057Z,11.20
2018-04-17T11:55:27.008Z,13.00
2018-04-17T11:57:53.749Z,14.53
2018-04-17T12:00:20.593Z,14.77
2018-04-17T12:02:47.438Z,16.73
2018-04-17T12:05:14.441Z,13.77
2018-04-17T12:07:42.857Z,14.17
2018-04-17T12:10:09.618Z,11.53
2018-04-17T12:12:36.440Z,14.23
2018-04-17T12:15:03.278Z,11.40
2018-04-17T12:17:30.026Z,10.30
2018-04-17T12:19:56.761Z,11.00
2018-04-17T12:22:23.698Z,9.87
2018-04-17T12:24:50.471Z,8.33
2018-04-17T12:27:17.159Z,11.83
2018-04-17T12:29:43.893Z,9.47
2018-04-17T12:32:10.645Z,13.53
2018-04-17T12:34:37.387Z,9.57
2018-04-17T12:37:04.858Z,10.10
2018-04-17T12:39:31.490Z,12.07
2018-04-17T12:41:58.180Z,6.57
2018-04-17T12:44:25.508Z,9.50
2018-04-17T12:46:52.219Z,8.47
2018-04-17T12:49:18.922Z,7.67
2018-04-17T12:51:45.658Z,7.87
2018-04-17T12:54:12.370Z,8.87
2018-04-17T12:56:39.138Z,6.90
2018-04-17T12:59:05.843Z,8.60
2018-04-17T13:01:32.550Z,8.80
2018-04-17T13:04:00.123Z,8.23
2018-04-17T13:06:26.833Z,11.00
2018-04-17T13:08:54.246Z,7.87
2018-04-17T13:11:20.935Z,9.10
2018-04-17T13:13:47.600Z,10.13
2018-04-17T13:16:14.717Z,8.70
2018-04-17T13:18:42.117Z,10.47
2018-04-17T13:21:08.845Z,11.53
2018-04-17T13:23:35.529Z,9.67
2018-04-17T13:26:02.194Z,8.73
2018-04-17T13:28:29.707Z,10.97
2018-04-17T13:30:56.443Z,11.67
2018-04-17T13:33:23.179Z,11.70
2018-04-17T13:35:49.926Z,11.30
2018-04-17T13:38:17.361Z,9.63
2018-04-17T13:40:44.377Z,11.07
2018-04-17T13:43:11.053Z,12.07
2018-04-17T13:45:38.562Z,9.63
2018-04-17T13:48:05.672Z,14.77
2018-04-17T13:50:32.386Z,11.53
2018-04-17T13:52:59.078Z,13.20
2018-04-17T13:55:26.463Z,16.23
2018-04-17T13:57:55.300Z,10.27
2018-04-17T14:00:21.987Z,9.30
2018-04-17T14:02:48.726Z,9.50
2018-04-17T14:05:15.603Z,11.00
2018-04-17T14:07:42.230Z,14.90
2018-04-17T14:10:08.973Z,12.40
2018-04-17T14:12:35.634Z,14.77
2018-04-17T14:15:02.386Z,13.33
2018-04-17T14:17:29.156Z,16.90
2018-04-17T14:19:55.866Z,13.03
2018-04-17T14:22:22.522Z,9.60
2018-04-17T14:24:49.307Z,11.23
2018-04-17T14:27:15.984Z,11.53
2018-04-17T14:29:42.780Z,10.67
2018-04-17T14:32:09.520Z,11.40
2018-04-17T14:34:36.255Z,12.50
2018-04-17T14:37:03.064Z,11.47
2018-04-17T14:39:29.782Z,11.80
2018-04-17T14:41:56.439Z,14.07
2018-04-17T14:44:23.274Z,11.73
2018-04-17T14:46:50.715Z,13.27
2018-04-17T14:49:17.430Z,14.90
2018-04-17T14:51:44.162Z,13.70
2018-04-17T14:54:10.879Z,13.67
2018-04-17T14:56:37.621Z,13.93
2018-04-17T14:59:05.147Z,13.53
2018-04-17T15:01:32.686Z,13.70
2018-04-17T15:03:59.467Z,11.83
2018-04-17T15:06:26.214Z,18.90
2018-04-17T15:08:52.992Z,12.87
2018-04-17T15:11:19.727Z,12.73
2018-04-17T15:13:46.489Z,16.23
2018-04-17T15:16:13.212Z,11.67
2018-04-17T15:18:40.927Z,13.53
2018-04-17T15:21:08.457Z,11.93
2018-04-17T15:23:35.187Z,11.07
2018-04-17T15:26:01.958Z,13.37
2018-04-17T15:28:29.150Z,13.13
2018-04-17T15:30:55.886Z,12.37
2018-04-17T15:33:22.629Z,13.20
2018-04-17T15:35:49.366Z,13.23
2018-04-17T15:38:16.830Z,12.63
2018-04-17T15:40:43.586Z,15.03
2018-04-17T15:43:10.273Z,12.20
2018-04-17T15:45:37.751Z,12.50
2018-04-17T15:48:04.411Z,17.33
2018-04-17T15:50:31.184Z,16.17
2018-04-17T15:52:57.930Z,12.93
2018-04-17T15:55:24.702Z,10.90
2018-04-17T15:57:51.479Z,15.07
2018-04-17T16:00:18.178Z,14.40
2018-04-17T16:02:45.560Z,13.20
2018-04-17T16:05:12.287Z,12.23
2018-04-17T16:07:38.992Z,10.40
2018-04-17T16:10:06.446Z,13.90
2018-04-17T16:12:33.160Z,12.50
2018-04-17T16:14:59.874Z,15.27
2018-04-17T16:17:27.021Z,14.73
2018-04-17T16:19:53.861Z,17.53
2018-04-17T16:22:20.547Z,14.63
2018-04-17T16:24:47.446Z,10.40
2018-04-17T16:27:14.694Z,13.27
2018-04-17T16:29:41.548Z,16.00
2018-04-17T16:32:08.252Z,13.20
2018-04-17T16:34:35.119Z,17.17
2018-04-17T16:37:02.067Z,15.63
2018-04-17T16:39:29.012Z,21.20
2018-04-17T16:41:55.753Z,13.73
2018-04-17T16:44:22.827Z,16.27
2018-04-17T16:46:49.637Z,16.93
2018-04-17T16:49:16.354Z,17.43
2018-04-17T16:51:43.327Z,17.93
2018-04-17T16:54:10.067Z,13.90
2018-04-17T16:56:36.726Z,16.57
2018-04-17T16:59:03.546Z,15.87
2018-04-17T17:01:30.213Z,18.03
2018-04-17T17:03:57.026Z,20.03
2018-04-17T17:06:23.864Z,19.67
2018-04-17T17:08:50.608Z,17.27
2018-04-17T17:11:17.449Z,21.63
2018-04-17T17:13:44.395Z,16.60
2018-04-17T17:16:11.241Z,20.23
2018-04-17T17:18:37.914Z,34.23
2018-04-17T17:21:05.018Z,64.67
2018-04-17T17:23:32.072Z,71.77
2018-04-17T17:25:58.818Z,36.67
2018-04-17T17:28:25.652Z,29.97
2018-04-17T17:30:52.599Z,20.33
2018-04-17T17:33:19.544Z,21.57
2018-04-17T17:35:47.044Z,39.40
2018-04-17T17:38:13.993Z,30.73
2018-04-17T17:40:40.962Z,22.23
2018-04-17T17:43:07.730Z,16.90
2018-04-17T17:45:34.573Z,23.57
2018-04-17T17:48:01.415Z,19.57
2018-04-17T17:50:28.565Z,16.30
2018-04-17T17:52:55.510Z,15.67
2018-04-17T17:55:22.660Z,21.70
2018-04-17T17:57:50.153Z,20.40
2018-04-17T18:00:17.470Z,14.73
2018-04-17T18:02:44.208Z,17.20
2018-04-17T18:05:10.962Z,15.87
2018-04-17T18:07:37.789Z,16.90
2018-04-17T18:10:04.637Z,16.40
2018-04-17T18:12:31.817Z,17.93
2018-04-17T18:14:58.623Z,18.13
2018-04-17T18:17:25.261Z,18.60
2018-04-17T18:19:52.001Z,17.07
2018-04-17T18:22:18.751Z,15.90
2018-04-17T18:24:45.586Z,16.20
2018-04-17T18:27:12.429Z,16.07
2018-04-17T18:29:39.266Z,15.83
2018-04-17T18:32:06.177Z,18.43
2018-04-17T18:34:32.840Z,16.63
2018-04-17T18:36:59.593Z,15.73
2018-04-17T18:39:26.328Z,15.10
2018-04-17T18:41:53.482Z,15.77
2018-04-17T18:44:20.324Z,15.90
2018-04-17T18:46:47.117Z,18.57
2018-04-17T18:49:13.796Z,18.23
2018-04-17T18:51:40.543Z,20.67
2018-04-17T18:54:07.488Z,19.87
2018-04-17T18:56:34.330Z,18.87
2018-04-17T18:59:01.173Z,18.30
2018-04-17T19:01:27.889Z,23.60
2018-04-17T19:03:54.619Z,18.27
2018-04-17T19:06:22.315Z,18.27
2018-04-17T19:08:49.053Z,19.67
2018-04-17T19:11:15.994Z,16.97
2018-04-17T19:13:42.657Z,17.80
2018-04-17T19:16:09.474Z,17.60
2018-04-17T19:18:36.421Z,19.03
2018-04-17T19:21:03.268Z,20.50
2018-04-17T19:23:30.006Z,18.17
2018-04-17T19:25:56.735Z,22.20
2018-04-17T19:28:23.583Z,18.93
2018-04-17T19:30:50.420Z,16.93
2018-04-17T19:33:17.268Z,22.13
2018-04-17T19:35:44.007Z,16.67
2018-04-17T19:38:10.854Z,16.00
2018-04-17T19:40:37.581Z,23.90
2018-04-17T19:43:04.539Z,19.37
2018-04-17T19:45:31.422Z,16.13
2018-04-17T19:47:59.167Z,15.70
2018-04-17T19:50:26.493Z,15.13
2018-04-17T19:52:53.234Z,17.90
2018-04-17T19:55:20.080Z,18.77
2018-04-17T19:57:46.817Z,18.37
2018-04-17T20:00:13.634Z,17.60
2018-04-17T20:02:40.506Z,18.97
2018-04-17T20:05:07.237Z,19.17
2018-04-17T20:07:34.090Z,19.27
2018-04-17T20:10:00.851Z,18.83
2018-04-17T20:12:27.667Z,18.80
2018-04-17T20:14:54.513Z,13.83
2018-04-17T20:17:21.760Z,16.90
2018-04-17T20:19:48.609Z,20.47
2018-04-17T20:22:15.449Z,15.20
2018-04-17T20:24:42.291Z,17.03
2018-04-17T20:27:09.026Z,15.97
2018-04-17T20:29:35.767Z,15.17
2018-04-17T20:32:02.613Z,17.13
2018-04-17T20:34:29.457Z,16.60
2018-04-17T20:36:56.400Z,18.43
2018-04-17T20:39:23.338Z,19.47
2018-04-17T20:41:50.075Z,15.30
2018-04-17T20:44:16.802Z,21.90
2018-04-17T20:46:44.590Z,15.67
2018-04-17T20:49:11.313Z,17.67
2018-04-17T20:51:38.172Z,18.03
2018-04-17T20:54:05.013Z,20.27
2018-04-17T20:56:32.061Z,17.03
2018-04-17T20:58:58.903Z,15.40
2018-04-17T21:01:25.594Z,19.50
2018-04-17T21:03:53.305Z,18.43
2018-04-17T21:06:20.251Z,19.90
2018-04-17T21:08:47.093Z,18.97
2018-04-17T21:11:14.143Z,22.23
2018-04-17T21:13:40.902Z,19.27
2018-04-17T21:16:07.722Z,22.47
2018-04-17T21:18:34.534Z,16.87
2018-04-17T21:21:02.118Z,22.77
2018-04-17T21:23:28.960Z,17.33
2018-04-17T21:25:55.909Z,17.27
2018-04-17T21:28:22.743Z,21.47
2018-04-17T21:30:49.697Z,19.30
2018-04-17T21:33:16.537Z,14.73
2018-04-17T21:35:43.381Z,17.30
2018-04-17T21:38:10.073Z,19.43
2018-04-17T21:40:36.965Z,18.37
2018-04-17T21:43:03.806Z,17.23
2018-04-17T21:45:30.648Z,18.27
2018-04-17T21:47:57.490Z,17.00
2018-04-17T21:50:24.333Z,16.23
2018-04-17T21:52:51.277Z,19.40
2018-04-17T21:55:17.917Z,17.87
2018-04-17T21:57:44.655Z,20.77
2018-04-17T22:00:11.498Z,19.73
2018-04-17T22:02:38.749Z,21.13
2018-04-17T22:05:05.489Z,21.93
2018-04-17T22:07:32.173Z,20.27
2018-04-17T22:09:58.968Z,16.50
2018-04-17T22:12:25.908Z,19.17
2018-04-17T22:14:52.616Z,20.57
2018-04-17T22:17:19.393Z,21.10
2018-04-17T22:19:46.229Z,16.27
2018-04-17T22:22:12.967Z,17.30
2018-04-17T22:24:39.739Z,17.80
2018-04-17T22:27:06.558Z,18.33
2018-04-17T22:29:33.400Z,16.97
2018-04-17T22:32:00.238Z,21.87
2018-04-17T22:34:27.089Z,20.13
2018-04-17T22:36:54.336Z,18.07
2018-04-17T22:39:21.175Z,15.57
2018-04-17T22:41:48.021Z,18.70
2018-04-17T22:44:14.966Z,19.83
2018-04-17T22:46:41.798Z,19.47
2018-04-17T22:49:08.649Z,22.93
2018-04-17T22:51:35.374Z,16.20
2018-04-17T22:54:02.230Z,17.33
2018-04-17T22:56:29.075Z,14.77
2018-04-17T22:58:55.914Z,16.83
2018-04-17T23:01:22.653Z,19.73
2018-04-17T23:03:49.577Z,18.53
2018-04-17T23:06:16.342Z,22.50
2018-04-17T23:08:42.977Z,22.43
2018-04-17T23:11:09.928Z,16.30
2018-04-17T23:13:36.661Z,15.03
2018-04-17T23:16:03.503Z,15.00
2018-04-17T23:18:30.303Z,19.97
2018-04-17T23:20:57.294Z,17.43
2018-04-17T23:23:24.136Z,15.80
2018-04-17T23:25:50.876Z,23.23
2018-04-17T23:28:17.814Z,17.80
2018-04-17T23:30:44.767Z,17.50
2018-04-17T23:33:11.461Z,15.87
2018-04-17T23:35:38.347Z,20.23
2018-04-17T23:38:05.569Z,15.77
2018-04-17T23:40:33.160Z,17.13
2018-04-17T23:43:00.106Z,20.03
2018-04-17T23:45:26.849Z,21.23
2018-04-17T23:47:53.503Z,18.83
2018-04-17T23:50:20.320Z,16.53
2018-04-17T23:52:47.166Z,18.47
2018-04-17T23:55:14.111Z,17.57
2018-04-17T23:57:40.754Z,18.23
